^^
Saratoga-Weather Station Historical Data
Daily Summary for August 25, 2019 Units:  Both    English   Metric
Daily Weekly Monthly Yearly Custom
  High: Low: Average:
Temperature: 92.8 °F /  33.8 °C 77.4 °F /  25.2 °C 82.1 °F /  27.8 °C
Dew Point: 81 °F /  27.2 °C 75.6 °F /  24.2 °C 77.4 °F /  25.2 °C
Humidity: 96% 61% 86%
Wind Speed: 12.1mph /  19.5km/h - 2.8mph /  4.5km/h
Wind Gust: 16mph /  25.7km/h - -
Wind- - South
Pressure: 29.93 in /  1013.4 hPa 29.79 in /  1008.7 hPa -
Precipitation: 1.48 in /  37.59 mm    
Historical Graphs
 
 
Tabular Data for August 25, 2019
Time Temperature Dew Point Pressure Wind Wind Speed Wind Gust Humidity Rainfall Rate (Hourly) solar
00:00 82.2 °F /  27.9 °C 76.5 °F /  24.7 °C 29.93in /  1013.4hPa SSW 0.9mph /  1.4km/h 6mph /  9.7km/h 83% 0in /  0mm 0.00 W/m2
00:05 82.2 °F /  27.9 °C 76.5 °F /  24.7 °C 29.93in /  1013.4hPa SSE 2.9mph /  4.7km/h 4mph /  6.4km/h 83% 0in /  0mm 0.00 W/m2
00:10 82 °F /  27.8 °C 76.3 °F /  24.6 °C 29.93in /  1013.4hPa South 0.9mph /  1.4km/h 2mph /  3.2km/h 83% 0in /  0mm 0.00 W/m2
00:15 82 °F /  27.8 °C 76.6 °F /  24.8 °C 29.93in /  1013.4hPa South 2.9mph /  4.7km/h 4mph /  6.4km/h 84% 0in /  0mm 0.00 W/m2
00:20 82 °F /  27.8 °C 76.6 °F /  24.8 °C 29.92in /  1013.1hPa SSW 2.9mph /  4.7km/h 3mph /  4.8km/h 84% 0in /  0mm 0.00 W/m2
00:25 82 °F /  27.8 °C 76.6 °F /  24.8 °C 29.92in /  1013.1hPa South 2mph /  3.2km/h 2mph /  3.2km/h 84% 0in /  0mm 0.00 W/m2
00:30 82 °F /  27.8 °C 76.6 °F /  24.8 °C 29.92in /  1013.1hPa SW 4mph /  6.4km/h 5mph /  8km/h 84% 0in /  0mm 0.00 W/m2
00:35 82 °F /  27.8 °C 76.6 °F /  24.8 °C 29.92in /  1013.1hPa SW 0.9mph /  1.4km/h 7mph /  11.3km/h 84% 0in /  0mm 0.00 W/m2
00:40 81.9 °F /  27.7 °C 76.5 °F /  24.7 °C 29.92in /  1013.1hPa South 2.9mph /  4.7km/h 5mph /  8km/h 84% 0in /  0mm 0.00 W/m2
00:45 81.9 °F /  27.7 °C 76.5 °F /  24.7 °C 29.92in /  1013.1hPa South 0.9mph /  1.4km/h 6mph /  9.7km/h 84% 0in /  0mm 0.00 W/m2
00:50 81.7 °F /  27.6 °C 76.6 °F /  24.8 °C 29.92in /  1013.1hPa SSW 2.9mph /  4.7km/h 5mph /  8km/h 85% 0in /  0mm 0.00 W/m2
00:55 81.7 °F /  27.6 °C 76.6 °F /  24.8 °C 29.92in /  1013.1hPa South 2mph /  3.2km/h 4mph /  6.4km/h 85% 0in /  0mm 0.00 W/m2
01:00 81.7 °F /  27.6 °C 76.6 °F /  24.8 °C 29.91in /  1012.8hPa SW 4mph /  6.4km/h 4mph /  6.4km/h 85% 0in /  0mm 0.00 W/m2
01:05 81.7 °F /  27.6 °C 76.6 °F /  24.8 °C 29.91in /  1012.8hPa South 0.9mph /  1.4km/h 6mph /  9.7km/h 85% 0in /  0mm 0.00 W/m2
01:10 81.7 °F /  27.6 °C 76.6 °F /  24.8 °C 29.92in /  1013.1hPa WSW 2.9mph /  4.7km/h 4mph /  6.4km/h 85% 0in /  0mm 0.00 W/m2
01:15 81.7 °F /  27.6 °C 77 °F /  25 °C 29.91in /  1012.8hPa South 2mph /  3.2km/h 4mph /  6.4km/h 86% 0in /  0mm 0.00 W/m2
01:20 81.3 °F /  27.4 °C 76.6 °F /  24.8 °C 29.91in /  1012.8hPa SW 6.9mph /  11.1km/h 7mph /  11.3km/h 86% 0in /  0mm 0.00 W/m2
01:25 81.3 °F /  27.4 °C 76.6 °F /  24.8 °C 29.91in /  1012.8hPa SSW 2.9mph /  4.7km/h 4mph /  6.4km/h 86% 0in /  0mm 0.00 W/m2
01:30 81.3 °F /  27.4 °C 77 °F /  25 °C 29.91in /  1012.8hPa South 0.9mph /  1.4km/h 7mph /  11.3km/h 87% 0in /  0mm 0.00 W/m2
01:35 81.3 °F /  27.4 °C 77 °F /  25 °C 29.90in /  1012.4hPa SSW 0.9mph /  1.4km/h 3mph /  4.8km/h 87% 0in /  0mm 0.00 W/m2
01:40 81.1 °F /  27.3 °C 76.8 °F /  24.9 °C 29.90in /  1012.4hPa South 7mph /  11.3km/h 7mph /  11.3km/h 87% 0in /  0mm 0.00 W/m2
01:45 81.1 °F /  27.3 °C 76.8 °F /  24.9 °C 29.89in /  1012.1hPa SSW 2mph /  3.2km/h 5mph /  8km/h 87% 0in /  0mm 0.00 W/m2
01:50 81.1 °F /  27.3 °C 76.8 °F /  24.9 °C 29.89in /  1012.1hPa WSW 2mph /  3.2km/h 3mph /  4.8km/h 87% 0in /  0mm 0.00 W/m2
01:55 81.1 °F /  27.3 °C 76.8 °F /  24.9 °C 29.89in /  1012.1hPa SW 0.9mph /  1.4km/h 6mph /  9.7km/h 87% 0in /  0mm 0.00 W/m2
02:00 81.1 °F /  27.3 °C 76.8 °F /  24.9 °C 29.89in /  1012.1hPa SW 2mph /  3.2km/h 3mph /  4.8km/h 87% 0in /  0mm 0.00 W/m2
02:05 81.3 °F /  27.4 °C 77 °F /  25 °C 29.89in /  1012.1hPa WSW 2mph /  3.2km/h 4mph /  6.4km/h 87% 0in /  0mm 0.00 W/m2
02:10 81.3 °F /  27.4 °C 77 °F /  25 °C 29.90in /  1012.4hPa South 2mph /  3.2km/h 3mph /  4.8km/h 87% 0in /  0mm 0.00 W/m2
02:15 81.3 °F /  27.4 °C 77 °F /  25 °C 29.90in /  1012.4hPa WSW 2mph /  3.2km/h 4mph /  6.4km/h 87% 0in /  0mm 0.00 W/m2
02:20 81.1 °F /  27.3 °C 76.8 °F /  24.9 °C 29.89in /  1012.1hPa SW 5mph /  8km/h 5mph /  8km/h 87% 0in /  0mm 0.00 W/m2
02:25 81.1 °F /  27.3 °C 76.8 °F /  24.9 °C 29.89in /  1012.1hPa SW 2mph /  3.2km/h 2mph /  3.2km/h 87% 0in /  0mm 0.00 W/m2
02:30 81.1 °F /  27.3 °C 76.8 °F /  24.9 °C 29.88in /  1011.7hPa SSW 2mph /  3.2km/h 3mph /  4.8km/h 87% 0in /  0mm 0.00 W/m2
02:35 81 °F /  27.2 °C 77 °F /  25 °C 29.88in /  1011.7hPa SSW 0.9mph /  1.4km/h 3mph /  4.8km/h 88% 0in /  0mm 0.00 W/m2
02:40 80.8 °F /  27.1 °C 76.8 °F /  24.9 °C 29.89in /  1012.1hPa SSW 0.9mph /  1.4km/h 2mph /  3.2km/h 88% 0in /  0mm 0.00 W/m2
02:45 80.8 °F /  27.1 °C 76.8 °F /  24.9 °C 29.89in /  1012.1hPa Calm   2mph /  3.2km/h 88% 0in /  0mm 0.00 W/m2
02:50 81 °F /  27.2 °C 77 °F /  25 °C 29.89in /  1012.1hPa SSW 0.9mph /  1.4km/h 2mph /  3.2km/h 88% 0in /  0mm 0.00 W/m2
02:55 81 °F /  27.2 °C 77 °F /  25 °C 29.89in /  1012.1hPa Calm   1mph /  1.6km/h 88% 0in /  0mm 0.00 W/m2
03:00 80.8 °F /  27.1 °C 76.8 °F /  24.9 °C 29.89in /  1012.1hPa SSW 0.9mph /  1.4km/h 2mph /  3.2km/h 88% 0in /  0mm 0.00 W/m2
03:05 80.6 °F /  27 °C 77 °F /  25 °C 29.89in /  1012.1hPa SSW 0.9mph /  1.4km/h 2mph /  3.2km/h 89% 0in /  0mm 0.00 W/m2
03:10 80.6 °F /  27 °C 77 °F /  25 °C 29.89in /  1012.1hPa SSW 3mph /  4.8km/h 3mph /  4.8km/h 89% 0in /  0mm 0.00 W/m2
03:15 80.4 °F /  26.9 °C 76.8 °F /  24.9 °C 29.89in /  1012.1hPa SSW 0.9mph /  1.4km/h 2mph /  3.2km/h 89% 0in /  0mm 0.00 W/m2
03:20 80.8 °F /  27.1 °C 76.8 °F /  24.9 °C 29.89in /  1012.1hPa SSW 0.9mph /  1.4km/h 2mph /  3.2km/h 88% 0in /  0mm 0.00 W/m2
03:25 80.6 °F /  27 °C 77 °F /  25 °C 29.89in /  1012.1hPa SSW 0.9mph /  1.4km/h 3mph /  4.8km/h 89% 0in /  0mm 0.00 W/m2
03:30 80.6 °F /  27 °C 77 °F /  25 °C 29.89in /  1012.1hPa SSW 0.9mph /  1.4km/h 2mph /  3.2km/h 89% 0in /  0mm 0.00 W/m2
03:35 80.8 °F /  27.1 °C 76.8 °F /  24.9 °C 29.90in /  1012.4hPa SW 0.9mph /  1.4km/h 2mph /  3.2km/h 88% 0in /  0mm 0.00 W/m2
03:40 80.8 °F /  27.1 °C 77.2 °F /  25.1 °C 29.90in /  1012.4hPa Calm   2mph /  3.2km/h 89% 0in /  0mm 0.00 W/m2
03:45 80.6 °F /  27 °C 77 °F /  25 °C 29.89in /  1012.1hPa Calm   1mph /  1.6km/h 89% 0in /  0mm 0.00 W/m2
03:50 80.6 °F /  27 °C 77 °F /  25 °C 29.89in /  1012.1hPa South 0.9mph /  1.4km/h 2mph /  3.2km/h 89% 0in /  0mm 0.00 W/m2
03:55 80.8 °F /  27.1 °C 77.2 °F /  25.1 °C 29.89in /  1012.1hPa SSW 2mph /  3.2km/h 3mph /  4.8km/h 89% 0in /  0mm 0.00 W/m2
04:00 80.6 °F /  27 °C 77 °F /  25 °C 29.88in /  1011.7hPa WSW 4mph /  6.4km/h 4mph /  6.4km/h 89% 0in /  0mm 0.00 W/m2
04:05 80.6 °F /  27 °C 77 °F /  25 °C 29.88in /  1011.7hPa WSW 0.9mph /  1.4km/h 2mph /  3.2km/h 89% 0in /  0mm 0.00 W/m2
04:10 80.4 °F /  26.9 °C 76.8 °F /  24.9 °C 29.88in /  1011.7hPa SW 0.9mph /  1.4km/h 2mph /  3.2km/h 89% 0in /  0mm 0.00 W/m2
04:15 80.4 °F /  26.9 °C 76.8 °F /  24.9 °C 29.89in /  1012.1hPa Calm   1mph /  1.6km/h 89% 0in /  0mm 0.00 W/m2
04:20 80.4 °F /  26.9 °C 76.8 °F /  24.9 °C 29.89in /  1012.1hPa Calm   1mph /  1.6km/h 89% 0in /  0mm 0.00 W/m2
04:25 80.4 °F /  26.9 °C 76.8 °F /  24.9 °C 29.89in /  1012.1hPa Calm   1mph /  1.6km/h 89% 0in /  0mm 0.00 W/m2
04:30 80.4 °F /  26.9 °C 77.2 °F /  25.1 °C 29.89in /  1012.1hPa Calm   1mph /  1.6km/h 90% 0in /  0mm 0.00 W/m2
04:35 80.2 °F /  26.8 °C 77 °F /  25 °C 29.89in /  1012.1hPa SW 3mph /  4.8km/h 3mph /  4.8km/h 90% 0in /  0mm 0.00 W/m2
04:40 80.4 °F /  26.9 °C 77.2 °F /  25.1 °C 29.88in /  1011.7hPa SW 0.9mph /  1.4km/h 2mph /  3.2km/h 90% 0in /  0mm 0.00 W/m2
04:45 80.4 °F /  26.9 °C 77.2 °F /  25.1 °C 29.88in /  1011.7hPa Calm   2mph /  3.2km/h 90% 0in /  0mm 0.00 W/m2
04:50 80.2 °F /  26.8 °C 77 °F /  25 °C 29.88in /  1011.7hPa SSW 2mph /  3.2km/h 2mph /  3.2km/h 90% 0in /  0mm 0.00 W/m2
04:55 80.2 °F /  26.8 °C 77 °F /  25 °C 29.88in /  1011.7hPa SSW 0.9mph /  1.4km/h 3mph /  4.8km/h 90% 0in /  0mm 0.00 W/m2
05:00 80.2 °F /  26.8 °C 77 °F /  25 °C 29.88in /  1011.7hPa Calm   2mph /  3.2km/h 90% 0in /  0mm 0.00 W/m2
05:05 80.1 °F /  26.7 °C 77.2 °F /  25.1 °C 29.88in /  1011.7hPa SSW 0.9mph /  1.4km/h 3mph /  4.8km/h 91% 0in /  0mm 0.00 W/m2
05:10 80.1 °F /  26.7 °C 77.2 °F /  25.1 °C 29.88in /  1011.7hPa SSW 0.9mph /  1.4km/h 1mph /  1.6km/h 91% 0in /  0mm 0.00 W/m2
05:15 79.9 °F /  26.6 °C 77 °F /  25 °C 29.88in /  1011.7hPa SSW 2mph /  3.2km/h 2mph /  3.2km/h 91% 0in /  0mm 0.00 W/m2
05:20 80.1 °F /  26.7 °C 77.2 °F /  25.1 °C 29.88in /  1011.7hPa SSW 0.9mph /  1.4km/h 2mph /  3.2km/h 91% 0in /  0mm 0.00 W/m2
05:25 80.1 °F /  26.7 °C 77.2 °F /  25.1 °C 29.88in /  1011.7hPa SSW 0.9mph /  1.4km/h 3mph /  4.8km/h 91% 0in /  0mm 0.00 W/m2
05:30 80.2 °F /  26.8 °C 77.4 °F /  25.2 °C 29.88in /  1011.7hPa SSW 0.9mph /  1.4km/h 2mph /  3.2km/h 91% 0in /  0mm 0.00 W/m2
05:35 80.2 °F /  26.8 °C 77 °F /  25 °C 29.88in /  1011.7hPa SSW 0.9mph /  1.4km/h 1mph /  1.6km/h 90% 0in /  0mm 0.00 W/m2
05:40 80.2 °F /  26.8 °C 77 °F /  25 °C 29.87in /  1011.4hPa Calm   1mph /  1.6km/h 90% 0in /  0mm 0.00 W/m2
05:45 80.1 °F /  26.7 °C 76.8 °F /  24.9 °C 29.87in /  1011.4hPa SSW 0.9mph /  1.4km/h 2mph /  3.2km/h 90% 0in /  0mm 0.00 W/m2
05:50 80.1 °F /  26.7 °C 77.2 °F /  25.1 °C 29.87in /  1011.4hPa SSW 2mph /  3.2km/h 3mph /  4.8km/h 91% 0in /  0mm 0.00 W/m2
05:55 80.1 °F /  26.7 °C 77.2 °F /  25.1 °C 29.87in /  1011.4hPa Calm   1mph /  1.6km/h 91% 0in /  0mm 0.00 W/m2
06:00 79.9 °F /  26.6 °C 77 °F /  25 °C 29.87in /  1011.4hPa Calm   1mph /  1.6km/h 91% 0in /  0mm 0.00 W/m2
06:05 79.7 °F /  26.5 °C 76.8 °F /  24.9 °C 29.87in /  1011.4hPa SSW 0.9mph /  1.4km/h 1mph /  1.6km/h 91% 0in /  0mm 0.00 W/m2
06:10 79.7 °F /  26.5 °C 76.8 °F /  24.9 °C 29.87in /  1011.4hPa SSW 0.9mph /  1.4km/h 1mph /  1.6km/h 91% 0in /  0mm 0.00 W/m2
06:15 79.5 °F /  26.4 °C 77 °F /  25 °C 29.88in /  1011.7hPa SSW 2mph /  3.2km/h 2mph /  3.2km/h 92% 0in /  0mm 0.00 W/m2
06:20 79.5 °F /  26.4 °C 77 °F /  25 °C 29.88in /  1011.7hPa SSW 2mph /  3.2km/h 2mph /  3.2km/h 92% 0in /  0mm 0.00 W/m2
06:25 79.3 °F /  26.3 °C 76.8 °F /  24.9 °C 29.88in /  1011.7hPa SSW 2mph /  3.2km/h 3mph /  4.8km/h 92% 0in /  0mm 0.00 W/m2
06:30 79.5 °F /  26.4 °C 77 °F /  25 °C 29.88in /  1011.7hPa SSW 0.9mph /  1.4km/h 2mph /  3.2km/h 92% 0in /  0mm 0.00 W/m2
06:35 79.5 °F /  26.4 °C 77 °F /  25 °C 29.88in /  1011.7hPa Calm   1mph /  1.6km/h 92% 0in /  0mm 0.00 W/m2
06:40 79.7 °F /  26.5 °C 77.2 °F /  25.1 °C 29.88in /  1011.7hPa South 0.9mph /  1.4km/h 5mph /  8km/h 92% 0in /  0mm 0.00 W/m2
06:45 79.9 °F /  26.6 °C 77.4 °F /  25.2 °C 29.88in /  1011.7hPa South 0.9mph /  1.4km/h 2mph /  3.2km/h 92% 0in /  0mm 0.00 W/m2
06:50 79.9 °F /  26.6 °C 77.4 °F /  25.2 °C 29.88in /  1011.7hPa South 2mph /  3.2km/h 3mph /  4.8km/h 92% 0in /  0mm 0.00 W/m2
06:55 80.1 °F /  26.7 °C 77.5 °F /  25.3 °C 29.88in /  1011.7hPa South 0.9mph /  1.4km/h 2mph /  3.2km/h 92% 0in /  0mm 0.00 W/m2
07:00 79.9 °F /  26.6 °C 77.4 °F /  25.2 °C 29.88in /  1011.7hPa Calm   3mph /  4.8km/h 92% 0in /  0mm 0.00 W/m2
07:05 79.9 °F /  26.6 °C 77.4 °F /  25.2 °C 29.88in /  1011.7hPa South 2mph /  3.2km/h 2mph /  3.2km/h 92% 0in /  0mm 7.00 W/m2
07:10 79.9 °F /  26.6 °C 77.4 °F /  25.2 °C 29.88in /  1011.7hPa South 0.9mph /  1.4km/h 1mph /  1.6km/h 92% 0in /  0mm 11.00 W/m2
07:15 79.9 °F /  26.6 °C 77.4 °F /  25.2 °C 29.88in /  1011.7hPa Calm   2mph /  3.2km/h 92% 0in /  0mm 19.00 W/m2
07:20 80.1 °F /  26.7 °C 77.5 °F /  25.3 °C 29.88in /  1011.7hPa South 2mph /  3.2km/h 3mph /  4.8km/h 92% 0in /  0mm 28.00 W/m2
07:25 80.2 °F /  26.8 °C 77.7 °F /  25.4 °C 29.88in /  1011.7hPa South 0.9mph /  1.4km/h 4mph /  6.4km/h 92% 0in /  0mm 39.00 W/m2
07:30 80.2 °F /  26.8 °C 77.4 °F /  25.2 °C 29.88in /  1011.7hPa South 2.9mph /  4.7km/h 3mph /  4.8km/h 91% 0in /  0mm 60.00 W/m2
07:35 80.4 °F /  26.9 °C 77.5 °F /  25.3 °C 29.88in /  1011.7hPa South 0.9mph /  1.4km/h 2mph /  3.2km/h 91% 0in /  0mm 54.00 W/m2
07:40 80.8 °F /  27.1 °C 77.9 °F /  25.5 °C 29.89in /  1012.1hPa South 2mph /  3.2km/h 2mph /  3.2km/h 91% 0in /  0mm 47.00 W/m2
07:45 80.8 °F /  27.1 °C 77.5 °F /  25.3 °C 29.89in /  1012.1hPa South 0.9mph /  1.4km/h 2mph /  3.2km/h 90% 0in /  0mm 40.00 W/m2
07:50 80.8 °F /  27.1 °C 77.9 °F /  25.5 °C 29.89in /  1012.1hPa South 0.9mph /  1.4km/h 2mph /  3.2km/h 91% 0in /  0mm 37.00 W/m2
07:55 80.6 °F /  27 °C 77.7 °F /  25.4 °C 29.90in /  1012.4hPa Calm   1mph /  1.6km/h 91% 0in /  0mm 40.00 W/m2
08:00 80.6 °F /  27 °C 77.7 °F /  25.4 °C 29.90in /  1012.4hPa Calm   1mph /  1.6km/h 91% 0in /  0mm 49.00 W/m2
08:05 80.8 °F /  27.1 °C 77.9 °F /  25.5 °C 29.90in /  1012.4hPa South 2mph /  3.2km/h 2mph /  3.2km/h 91% 0in /  0mm 56.00 W/m2
08:10 81 °F /  27.2 °C 78.1 °F /  25.6 °C 29.91in /  1012.8hPa South 0.9mph /  1.4km/h 1mph /  1.6km/h 91% 0in /  0mm 51.00 W/m2
08:15 81 °F /  27.2 °C 77.7 °F /  25.4 °C 29.91in /  1012.8hPa SSW 2mph /  3.2km/h 3mph /  4.8km/h 90% 0in /  0mm 56.00 W/m2
08:20 81 °F /  27.2 °C 78.1 °F /  25.6 °C 29.91in /  1012.8hPa SSW 0.9mph /  1.4km/h 2mph /  3.2km/h 91% 0in /  0mm 81.00 W/m2
08:25 81.1 °F /  27.3 °C 78.3 °F /  25.7 °C 29.91in /  1012.8hPa Calm   3mph /  4.8km/h 91% 0in /  0mm 109.00 W/m2
08:30 81.7 °F /  27.6 °C 78.4 °F /  25.8 °C 29.91in /  1012.8hPa South 0.9mph /  1.4km/h 3mph /  4.8km/h 90% 0in /  0mm 130.00 W/m2
08:35 81.9 °F /  27.7 °C 78.3 °F /  25.7 °C 29.91in /  1012.8hPa Calm   2mph /  3.2km/h 89% 0in /  0mm 105.00 W/m2
08:40 81.7 °F /  27.6 °C 78.1 °F /  25.6 °C 29.91in /  1012.8hPa SSW 0.9mph /  1.4km/h 2mph /  3.2km/h 89% 0in /  0mm 120.00 W/m2
08:45 82 °F /  27.8 °C 78.8 °F /  26 °C 29.91in /  1012.8hPa Calm   3mph /  4.8km/h 90% 0in /  0mm 121.00 W/m2
08:50 82.2 °F /  27.9 °C 78.6 °F /  25.9 °C 29.91in /  1012.8hPa South 2mph /  3.2km/h 3mph /  4.8km/h 89% 0in /  0mm 127.00 W/m2
08:55 82.2 °F /  27.9 °C 78.6 °F /  25.9 °C 29.91in /  1012.8hPa South 0.9mph /  1.4km/h 2mph /  3.2km/h 89% 0in /  0mm 135.00 W/m2
09:00 82.6 °F /  28.1 °C 79 °F /  26.1 °C 29.91in /  1012.8hPa SSW 2mph /  3.2km/h 3mph /  4.8km/h 89% 0in /  0mm 153.00 W/m2
09:05 82.6 °F /  28.1 °C 78.6 °F /  25.9 °C 29.91in /  1012.8hPa Calm   2mph /  3.2km/h 88% 0in /  0mm 162.00 W/m2
09:10 82.6 °F /  28.1 °C 78.6 °F /  25.9 °C 29.91in /  1012.8hPa South 4mph /  6.4km/h 4mph /  6.4km/h 88% 0in /  0mm 181.00 W/m2
09:15 82.9 °F /  28.3 °C 79 °F /  26.1 °C 29.91in /  1012.8hPa Calm   1mph /  1.6km/h 88% 0in /  0mm 174.00 W/m2
09:20 83.1 °F /  28.4 °C 79.2 °F /  26.2 °C 29.91in /  1012.8hPa South 2mph /  3.2km/h 3mph /  4.8km/h 88% 0in /  0mm 158.00 W/m2
09:25 83.1 °F /  28.4 °C 78.8 °F /  26 °C 29.91in /  1012.8hPa Calm   2mph /  3.2km/h 87% 0in /  0mm 158.00 W/m2
09:30 83.1 °F /  28.4 °C 78.8 °F /  26 °C 29.91in /  1012.8hPa SSW 0.9mph /  1.4km/h 3mph /  4.8km/h 87% 0in /  0mm 162.00 W/m2
09:35 83.3 °F /  28.5 °C 78.6 °F /  25.9 °C 29.91in /  1012.8hPa Calm   3mph /  4.8km/h 86% 0in /  0mm 186.00 W/m2
09:40 83.7 °F /  28.7 °C 79.3 °F /  26.3 °C 29.91in /  1012.8hPa SSW 2mph /  3.2km/h 5mph /  8km/h 87% 0in /  0mm 243.00 W/m2
09:45 84 °F /  28.9 °C 79 °F /  26.1 °C 29.91in /  1012.8hPa Calm   1mph /  1.6km/h 85% 0in /  0mm 264.00 W/m2
09:50 84.6 °F /  29.2 °C 79.2 °F /  26.2 °C 29.91in /  1012.8hPa NW 0.9mph /  1.4km/h 2mph /  3.2km/h 84% 0in /  0mm 271.00 W/m2
09:55 84.7 °F /  29.3 °C 79 °F /  26.1 °C 29.92in /  1013.1hPa WSW 0.9mph /  1.4km/h 6mph /  9.7km/h 83% 0in /  0mm 234.00 W/m2
10:00 84.9 °F /  29.4 °C 79.2 °F /  26.2 °C 29.92in /  1013.1hPa West 0.9mph /  1.4km/h 4mph /  6.4km/h 83% 0in /  0mm 397.00 W/m2
10:05 86 °F /  30 °C 80.6 °F /  27 °C 29.91in /  1012.8hPa SSW 2.9mph /  4.7km/h 5mph /  8km/h 84% 0in /  0mm 571.00 W/m2
10:10 87.4 °F /  30.8 °C 81 °F /  27.2 °C 29.91in /  1012.8hPa West 2mph /  3.2km/h 4mph /  6.4km/h 81% 0in /  0mm 548.00 W/m2
10:15 86.5 °F /  30.3 °C 79.2 °F /  26.2 °C 29.92in /  1013.1hPa WSW 2mph /  3.2km/h 7mph /  11.3km/h 79% 0in /  0mm 308.00 W/m2
10:20 86.4 °F /  30.2 °C 79 °F /  26.1 °C 29.92in /  1013.1hPa WSW 2mph /  3.2km/h 6mph /  9.7km/h 79% 0in /  0mm 410.00 W/m2
10:25 86.4 °F /  30.2 °C 79.5 °F /  26.4 °C 29.92in /  1013.1hPa NW 2.9mph /  4.7km/h 7mph /  11.3km/h 80% 0in /  0mm 529.00 W/m2
10:30 86.7 °F /  30.4 °C 79 °F /  26.1 °C 29.92in /  1013.1hPa WSW 2mph /  3.2km/h 6mph /  9.7km/h 78% 0in /  0mm 376.00 W/m2
10:35 86.5 °F /  30.3 °C 79.2 °F /  26.2 °C 29.92in /  1013.1hPa WSW 2.9mph /  4.7km/h 4mph /  6.4km/h 79% 0in /  0mm 381.00 W/m2
10:40 86.5 °F /  30.3 °C 79.2 °F /  26.2 °C 29.91in /  1012.8hPa WSW 2mph /  3.2km/h 4mph /  6.4km/h 79% 0in /  0mm 374.00 W/m2
10:45 86.7 °F /  30.4 °C 79.9 °F /  26.6 °C 29.91in /  1012.8hPa South 2mph /  3.2km/h 5mph /  8km/h 80% 0in /  0mm 334.00 W/m2
10:50 86.5 °F /  30.3 °C 79.2 °F /  26.2 °C 29.92in /  1013.1hPa WSW 4mph /  6.4km/h 7mph /  11.3km/h 79% 0in /  0mm 276.00 W/m2
10:55 86.4 °F /  30.2 °C 79 °F /  26.1 °C 29.92in /  1013.1hPa WSW 0.9mph /  1.4km/h 3mph /  4.8km/h 79% 0in /  0mm 255.00 W/m2
11:00 86.4 °F /  30.2 °C 79.9 °F /  26.6 °C 29.92in /  1013.1hPa SW 0.9mph /  1.4km/h 4mph /  6.4km/h 81% 0in /  0mm 274.00 W/m2
11:05 86.7 °F /  30.4 °C 79.3 °F /  26.3 °C 29.92in /  1013.1hPa SW 2mph /  3.2km/h 3mph /  4.8km/h 79% 0in /  0mm 555.00 W/m2
11:10 88.2 °F /  31.2 °C 80.1 °F /  26.7 °C 29.91in /  1012.8hPa NW 2mph /  3.2km/h 3mph /  4.8km/h 77% 0in /  0mm 912.00 W/m2
11:15 88.9 °F /  31.6 °C 80.8 °F /  27.1 °C 29.91in /  1012.8hPa SSW 0.9mph /  1.4km/h 5mph /  8km/h 77% 0in /  0mm 956.00 W/m2
11:20 89.2 °F /  31.8 °C 80.2 °F /  26.8 °C 29.91in /  1012.8hPa NNW 2.9mph /  4.7km/h 9mph /  14.5km/h 75% 0in /  0mm 893.00 W/m2
11:25 88.9 °F /  31.6 °C 79.9 °F /  26.6 °C 29.91in /  1012.8hPa SSW 4mph /  6.4km/h 4mph /  6.4km/h 75% 0in /  0mm 884.00 W/m2
11:30 89.2 °F /  31.8 °C 79.5 °F /  26.4 °C 29.91in /  1012.8hPa West 2mph /  3.2km/h 5mph /  8km/h 73% 0in /  0mm 911.00 W/m2
11:35 90.1 °F /  32.3 °C 80.8 °F /  27.1 °C 29.91in /  1012.8hPa SW 2mph /  3.2km/h 7mph /  11.3km/h 74% 0in /  0mm 882.00 W/m2
11:40 90.7 °F /  32.6 °C 80.4 °F /  26.9 °C 29.91in /  1012.8hPa WSW 4mph /  6.4km/h 6mph /  9.7km/h 72% 0in /  0mm 923.00 W/m2
11:45 90.1 °F /  32.3 °C 79.5 °F /  26.4 °C 29.90in /  1012.4hPa WNW 2.9mph /  4.7km/h 3mph /  4.8km/h 71% 0in /  0mm 900.00 W/m2
11:50 90.3 °F /  32.4 °C 79.2 °F /  26.2 °C 29.90in /  1012.4hPa WNW 2mph /  3.2km/h 4mph /  6.4km/h 70% 0in /  0mm 967.00 W/m2
11:55 91 °F /  32.8 °C 79.5 °F /  26.4 °C 29.89in /  1012.1hPa WNW 2mph /  3.2km/h 5mph /  8km/h 69% 0in /  0mm 984.00 W/m2
12:00 91.2 °F /  32.9 °C 80.1 °F /  26.7 °C 29.89in /  1012.1hPa NW 0.9mph /  1.4km/h 6mph /  9.7km/h 70% 0in /  0mm 803.00 W/m2
12:05 90.1 °F /  32.3 °C 79.5 °F /  26.4 °C 29.88in /  1011.7hPa SSW 2.9mph /  4.7km/h 7mph /  11.3km/h 71% 0in /  0mm 302.00 W/m2
12:10 90.3 °F /  32.4 °C 78.8 °F /  26 °C 29.88in /  1011.7hPa WNW 2.9mph /  4.7km/h 9mph /  14.5km/h 69% 0in /  0mm 329.00 W/m2
12:15 90.1 °F /  32.3 °C 79 °F /  26.1 °C 29.88in /  1011.7hPa North 4mph /  6.4km/h 10mph /  16.1km/h 70% 0in /  0mm 265.00 W/m2
12:20 89.8 °F /  32.1 °C 79.2 °F /  26.2 °C 29.88in /  1011.7hPa Calm   1mph /  1.6km/h 71% 0in /  0mm 1049.00 W/m2
12:25 90.9 °F /  32.7 °C 78.8 °F /  26 °C 29.88in /  1011.7hPa West 4mph /  6.4km/h 4mph /  6.4km/h 68% 0in /  0mm 429.00 W/m2
12:30 91.2 °F /  32.9 °C 78.8 °F /  26 °C 29.88in /  1011.7hPa East 2mph /  3.2km/h 6mph /  9.7km/h 67% 0in /  0mm 1153.00 W/m2
12:35 92.8 °F /  33.8 °C 77.4 °F /  25.2 °C 29.87in /  1011.4hPa WSW 0.9mph /  1.4km/h 3mph /  4.8km/h 61% 0in /  0mm 1148.00 W/m2
12:40 92.7 °F /  33.7 °C 79.7 °F /  26.5 °C 29.87in /  1011.4hPa North 8.1mph /  13km/h 9mph /  14.5km/h 66% 0in /  0mm 432.00 W/m2
12:45 91 °F /  32.8 °C 78.1 °F /  25.6 °C 29.87in /  1011.4hPa NW 4.9mph /  7.9km/h 5mph /  8km/h 66% 0in /  0mm 424.00 W/m2
12:50 91 °F /  32.8 °C 79 °F /  26.1 °C 29.87in /  1011.4hPa NNE 2mph /  3.2km/h 8mph /  12.9km/h 68% 0in /  0mm 243.00 W/m2
12:55 90.7 °F /  32.6 °C 78.6 °F /  25.9 °C 29.86in /  1011.1hPa WNW 2mph /  3.2km/h 3mph /  4.8km/h 68% 0in /  0mm 239.00 W/m2
13:00 91.9 °F /  33.3 °C 79.3 °F /  26.3 °C 29.86in /  1011.1hPa NNE 2mph /  3.2km/h 5mph /  8km/h 67% 0in /  0mm 367.00 W/m2
13:05 91.4 °F /  33 °C 77.9 °F /  25.5 °C 29.86in /  1011.1hPa NNW 2.9mph /  4.7km/h 3mph /  4.8km/h 65% 0in /  0mm 350.00 W/m2
13:10 91.2 °F /  32.9 °C 78.3 °F /  25.7 °C 29.86in /  1011.1hPa North 0.9mph /  1.4km/h 3mph /  4.8km/h 66% 0in /  0mm 322.00 W/m2
13:15 91.8 °F /  33.2 °C 79.2 °F /  26.2 °C 29.86in /  1011.1hPa North 4.9mph /  7.9km/h 5mph /  8km/h 67% 0in /  0mm 656.00 W/m2
13:20 92.7 °F /  33.7 °C 79.2 °F /  26.2 °C 29.85in /  1010.7hPa North 4mph /  6.4km/h 9mph /  14.5km/h 65% 0in /  0mm 392.00 W/m2
13:25 92.1 °F /  33.4 °C 78.6 °F /  25.9 °C 29.86in /  1011.1hPa NW 2.9mph /  4.7km/h 6mph /  9.7km/h 65% 0in /  0mm 287.00 W/m2
13:30 92.5 °F /  33.6 °C 79.5 °F /  26.4 °C 29.86in /  1011.1hPa North 2.9mph /  4.7km/h 4mph /  6.4km/h 66% 0in /  0mm 1081.00 W/m2
13:35 92.7 °F /  33.7 °C 79.2 °F /  26.2 °C 29.85in /  1010.7hPa SW 0.9mph /  1.4km/h 4mph /  6.4km/h 65% 0in /  0mm 281.00 W/m2
13:40 92.1 °F /  33.4 °C 78.3 °F /  25.7 °C 29.85in /  1010.7hPa West 4mph /  6.4km/h 7mph /  11.3km/h 64% 0in /  0mm 290.00 W/m2
13:45 91.2 °F /  32.9 °C 77.4 °F /  25.2 °C 29.85in /  1010.7hPa South 2mph /  3.2km/h 3mph /  4.8km/h 64% 0in /  0mm 446.00 W/m2
13:50 92.1 °F /  33.4 °C 78.3 °F /  25.7 °C 29.85in /  1010.7hPa South 0.9mph /  1.4km/h 4mph /  6.4km/h 64% 0in /  0mm 471.00 W/m2
13:55 91.9 °F /  33.3 °C 78.1 °F /  25.6 °C 29.86in /  1011.1hPa SSW 6mph /  9.7km/h 8mph /  12.9km/h 64% 0in /  0mm 315.00 W/m2
14:00 90.9 °F /  32.7 °C 78.4 °F /  25.8 °C 29.86in /  1011.1hPa SE 2.9mph /  4.7km/h 9mph /  14.5km/h 67% 0in /  0mm 325.00 W/m2
14:05 89.2 °F /  31.8 °C 77.7 °F /  25.4 °C 29.86in /  1011.1hPa ESE 8.9mph /  14.3km/h 13mph /  20.9km/h 69% 0in /  0mm 134.00 W/m2
14:10 86 °F /  30 °C 76.8 °F /  24.9 °C 29.86in /  1011.1hPa SE 10.1mph /  16.3km/h 14mph /  22.5km/h 74% 0in /  0mm 63.00 W/m2
14:15 84.4 °F /  29.1 °C 77.2 °F /  25.1 °C 29.86in /  1011.1hPa SSE 6mph /  9.7km/h 11mph /  17.7km/h 79% 0in /  0mm 19.00 W/m2
14:20 82.9 °F /  28.3 °C 76.8 °F /  24.9 °C 29.87in /  1011.4hPa SSE 12.1mph /  19.5km/h 12mph /  19.3km/h 82% 0in /  0mm 9.00 W/m2
14:25 81.9 °F /  27.7 °C 76.8 °F /  24.9 °C 29.88in /  1011.7hPa SE 6mph /  9.7km/h 13mph /  20.9km/h 85% 0.01in /  0.25mm 11.00 W/m2
14:30 80.4 °F /  26.9 °C 76.5 °F /  24.7 °C 29.88in /  1011.7hPa South 6mph /  9.7km/h 16mph /  25.7km/h 88% 0.05in /  1.27mm 21.00 W/m2
14:35 79.3 °F /  26.3 °C 76.5 °F /  24.7 °C 29.88in /  1011.7hPa SE 10.1mph /  16.3km/h 13mph /  20.9km/h 91% 0.2in /  5.08mm 32.00 W/m2
14:40 78.4 °F /  25.8 °C 75.9 °F /  24.4 °C 29.88in /  1011.7hPa SSE 8.9mph /  14.3km/h 13mph /  20.9km/h 92% 0.5in /  12.7mm 40.00 W/m2
14:45 78.1 °F /  25.6 °C 76.3 °F /  24.6 °C 29.88in /  1011.7hPa SE 6mph /  9.7km/h 9mph /  14.5km/h 94% 0.79in /  20.07mm 40.00 W/m2
14:50 77.9 °F /  25.5 °C 76.1 °F /  24.5 °C 29.89in /  1012.1hPa SE 8.1mph /  13km/h 14mph /  22.5km/h 94% 0.96in /  24.38mm 32.00 W/m2
14:55 77.7 °F /  25.4 °C 76.1 °F /  24.5 °C 29.88in /  1011.7hPa SE 8.1mph /  13km/h 10mph /  16.1km/h 95% 1.17in /  29.72mm 39.00 W/m2
15:00 77.5 °F /  25.3 °C 75.9 °F /  24.4 °C 29.89in /  1012.1hPa SE 4.9mph /  7.9km/h 8mph /  12.9km/h 95% 1.34in /  34.04mm 47.00 W/m2
15:05 77.4 °F /  25.2 °C 75.7 °F /  24.3 °C 29.88in /  1011.7hPa SE 8.9mph /  14.3km/h 12mph /  19.3km/h 95% 1.43in /  36.32mm 91.00 W/m2
15:10 77.5 °F /  25.3 °C 76.3 °F /  24.6 °C 29.88in /  1011.7hPa ESE 4mph /  6.4km/h 8mph /  12.9km/h 96% 1.45in /  36.83mm 151.00 W/m2
15:15 77.5 °F /  25.3 °C 75.9 °F /  24.4 °C 29.87in /  1011.4hPa ESE 6mph /  9.7km/h 8mph /  12.9km/h 95% 1.47in /  37.34mm 257.00 W/m2
15:20 77.5 °F /  25.3 °C 75.9 °F /  24.4 °C 29.87in /  1011.4hPa NE 6.9mph /  11.1km/h 10mph /  16.1km/h 95% 1.47in /  37.34mm 622.00 W/m2
15:25 78.1 °F /  25.6 °C 76.5 °F /  24.7 °C 29.86in /  1011.1hPa SSE 4mph /  6.4km/h 5mph /  8km/h 95% 1.46in /  37.08mm 216.00 W/m2
15:30 77.5 °F /  25.3 °C 75.7 °F /  24.3 °C 29.86in /  1011.1hPa South 4.9mph /  7.9km/h 11mph /  17.7km/h 94% 1.41in /  35.81mm 179.00 W/m2
15:35 77.4 °F /  25.2 °C 75.6 °F /  24.2 °C 29.86in /  1011.1hPa SSE 6mph /  9.7km/h 12mph /  19.3km/h 94% 1.23in /  31.24mm 163.00 W/m2
15:40 77.5 °F /  25.3 °C 75.7 °F /  24.3 °C 29.86in /  1011.1hPa SE 6.9mph /  11.1km/h 10mph /  16.1km/h 94% 0.92in /  23.37mm 165.00 W/m2
15:45 77.9 °F /  25.5 °C 76.3 °F /  24.6 °C 29.86in /  1011.1hPa SE 4.9mph /  7.9km/h 7mph /  11.3km/h 95% 0.66in /  16.76mm 197.00 W/m2
15:50 78.3 °F /  25.7 °C 76.6 °F /  24.8 °C 29.86in /  1011.1hPa ESE 4mph /  6.4km/h 6mph /  9.7km/h 95% 0.47in /  11.94mm 197.00 W/m2
15:55 78.1 °F /  25.6 °C 76.3 °F /  24.6 °C 29.85in /  1010.7hPa SSE 2mph /  3.2km/h 10mph /  16.1km/h 94% 0.26in /  6.6mm 271.00 W/m2
16:00 78.4 °F /  25.8 °C 76.8 °F /  24.9 °C 29.85in /  1010.7hPa SSE 2.9mph /  4.7km/h 6mph /  9.7km/h 95% 0.12in /  3.05mm 202.00 W/m2
16:05 78.8 °F /  26 °C 77 °F /  25 °C 29.85in /  1010.7hPa SSE 9mph /  14.5km/h 9mph /  14.5km/h 94% 0.04in /  1.02mm 172.00 W/m2
16:10 79 °F /  26.1 °C 77.2 °F /  25.1 °C 29.85in /  1010.7hPa South 2.9mph /  4.7km/h 5mph /  8km/h 94% 0.02in /  0.51mm 181.00 W/m2
16:15 79 °F /  26.1 °C 77.2 °F /  25.1 °C 29.85in /  1010.7hPa SSE 8.1mph /  13km/h 8mph /  12.9km/h 94% 0.01in /  0.25mm 181.00 W/m2
16:20 78.8 °F /  26 °C 77 °F /  25 °C 29.85in /  1010.7hPa SSE 6mph /  9.7km/h 9mph /  14.5km/h 94% 0.01in /  0.25mm 234.00 W/m2
16:25 79.3 °F /  26.3 °C 77.7 °F /  25.4 °C 29.85in /  1010.7hPa SE 6.9mph /  11.1km/h 7mph /  11.3km/h 95% 0.01in /  0.25mm 587.00 W/m2
16:30 79.9 °F /  26.6 °C 78.1 °F /  25.6 °C 29.85in /  1010.7hPa ESE 6mph /  9.7km/h 10mph /  16.1km/h 94% 0.01in /  0.25mm 650.00 W/m2
16:35 80.4 °F /  26.9 °C 77.9 °F /  25.5 °C 29.85in /  1010.7hPa SE 6.9mph /  11.1km/h 8mph /  12.9km/h 92% 0.01in /  0.25mm 520.00 W/m2
16:40 80.1 °F /  26.7 °C 77.2 °F /  25.1 °C 29.85in /  1010.7hPa South 8.9mph /  14.3km/h 10mph /  16.1km/h 91% 0.01in /  0.25mm 309.00 W/m2
16:45 80.1 °F /  26.7 °C 77.2 °F /  25.1 °C 29.85in /  1010.7hPa SSE 4.9mph /  7.9km/h 9mph /  14.5km/h 91% 0.01in /  0.25mm 380.00 W/m2
16:50 79.9 °F /  26.6 °C 77 °F /  25 °C 29.85in /  1010.7hPa ESE 2mph /  3.2km/h 8mph /  12.9km/h 91% 0in /  0mm 454.00 W/m2
16:55 80.2 °F /  26.8 °C 77 °F /  25 °C 29.85in /  1010.7hPa SE 11mph /  17.7km/h 11mph /  17.7km/h 90% 0in /  0mm 589.00 W/m2
17:00 80.6 °F /  27 °C 77 °F /  25 °C 29.84in /  1010.4hPa SE 4mph /  6.4km/h 7mph /  11.3km/h 89% 0in /  0mm 619.00 W/m2
17:05 81.3 °F /  27.4 °C 77.7 °F /  25.4 °C 29.84in /  1010.4hPa SSE 8.9mph /  14.3km/h 9mph /  14.5km/h 89% 0in /  0mm 582.00 W/m2
17:10 81.5 °F /  27.5 °C 77.5 °F /  25.3 °C 29.84in /  1010.4hPa SSE 4mph /  6.4km/h 9mph /  14.5km/h 88% 0in /  0mm 461.00 W/m2
17:15 81.1 °F /  27.3 °C 76.8 °F /  24.9 °C 29.84in /  1010.4hPa ESE 4mph /  6.4km/h 8mph /  12.9km/h 87% 0in /  0mm 281.00 W/m2
17:20 80.8 °F /  27.1 °C 76.8 °F /  24.9 °C 29.83in /  1010hPa ESE 6mph /  9.7km/h 7mph /  11.3km/h 88% 0in /  0mm 211.00 W/m2
17:25 80.8 °F /  27.1 °C 76.8 °F /  24.9 °C 29.83in /  1010hPa SSE 2.9mph /  4.7km/h 8mph /  12.9km/h 88% 0in /  0mm 320.00 W/m2
17:30 81 °F /  27.2 °C 76.6 °F /  24.8 °C 29.83in /  1010hPa SE 8.9mph /  14.3km/h 9mph /  14.5km/h 87% 0in /  0mm 200.00 W/m2
17:35 80.6 °F /  27 °C 76.6 °F /  24.8 °C 29.83in /  1010hPa SSE 4.9mph /  7.9km/h 9mph /  14.5km/h 88% 0in /  0mm 179.00 W/m2
17:40 80.2 °F /  26.8 °C 76.6 °F /  24.8 °C 29.82in /  1009.7hPa SE 4mph /  6.4km/h 10mph /  16.1km/h 89% 0in /  0mm 199.00 W/m2
17:45 80.1 °F /  26.7 °C 76.5 °F /  24.7 °C 29.82in /  1009.7hPa SSE 4mph /  6.4km/h 10mph /  16.1km/h 89% 0in /  0mm 197.00 W/m2
17:50 80.6 °F /  27 °C 77 °F /  25 °C 29.82in /  1009.7hPa SE 2.9mph /  4.7km/h 5mph /  8km/h 89% 0in /  0mm 283.00 W/m2
17:55 81.1 °F /  27.3 °C 77.2 °F /  25.1 °C 29.83in /  1010hPa SE 4.9mph /  7.9km/h 6mph /  9.7km/h 88% 0in /  0mm 339.00 W/m2
18:00 81.1 °F /  27.3 °C 76.8 °F /  24.9 °C 29.82in /  1009.7hPa SE 4mph /  6.4km/h 8mph /  12.9km/h 87% 0in /  0mm 399.00 W/m2
18:05 81.3 °F /  27.4 °C 77 °F /  25 °C 29.81in /  1009.4hPa SE 4mph /  6.4km/h 7mph /  11.3km/h 87% 0in /  0mm 374.00 W/m2
18:10 82 °F /  27.8 °C 77.4 °F /  25.2 °C 29.82in /  1009.7hPa SE 4.9mph /  7.9km/h 5mph /  8km/h 86% 0in /  0mm 353.00 W/m2
18:15 81.9 °F /  27.7 °C 76.8 °F /  24.9 °C 29.82in /  1009.7hPa SE 2.9mph /  4.7km/h 9mph /  14.5km/h 85% 0in /  0mm 315.00 W/m2
18:20 81.9 °F /  27.7 °C 76.8 °F /  24.9 °C 29.82in /  1009.7hPa SSE 4.9mph /  7.9km/h 8mph /  12.9km/h 85% 0in /  0mm 220.00 W/m2
18:25 81.7 °F /  27.6 °C 77 °F /  25 °C 29.81in /  1009.4hPa SSE 8.1mph /  13km/h 9mph /  14.5km/h 86% 0in /  0mm 304.00 W/m2
18:30 81.7 °F /  27.6 °C 76.6 °F /  24.8 °C 29.81in /  1009.4hPa SE 4mph /  6.4km/h 11mph /  17.7km/h 85% 0in /  0mm 267.00 W/m2
18:35 81.9 °F /  27.7 °C 76.8 °F /  24.9 °C 29.81in /  1009.4hPa SSE 8.9mph /  14.3km/h 9mph /  14.5km/h 85% 0in /  0mm 244.00 W/m2
18:40 81.7 °F /  27.6 °C 76.6 °F /  24.8 °C 29.81in /  1009.4hPa SSW 4.9mph /  7.9km/h 8mph /  12.9km/h 85% 0in /  0mm 202.00 W/m2
18:45 81.5 °F /  27.5 °C 76.5 °F /  24.7 °C 29.80in /  1009hPa South 4mph /  6.4km/h 8mph /  12.9km/h 85% 0in /  0mm 178.00 W/m2
18:50 81.3 °F /  27.4 °C 76.6 °F /  24.8 °C 29.80in /  1009hPa SE 4.9mph /  7.9km/h 11mph /  17.7km/h 86% 0in /  0mm 144.00 W/m2
18:55 81.3 °F /  27.4 °C 76.6 °F /  24.8 °C 29.80in /  1009hPa SSW 2mph /  3.2km/h 7mph /  11.3km/h 86% 0in /  0mm 54.00 W/m2
19:00 81.3 °F /  27.4 °C 76.6 °F /  24.8 °C 29.80in /  1009hPa South 8.1mph /  13km/h 8mph /  12.9km/h 86% 0in /  0mm 47.00 W/m2
19:05 81.1 °F /  27.3 °C 76.5 °F /  24.7 °C 29.80in /  1009hPa SSE 6mph /  9.7km/h 8mph /  12.9km/h 86% 0in /  0mm 42.00 W/m2
19:10 81.3 °F /  27.4 °C 77 °F /  25 °C 29.80in /  1009hPa SSE 6mph /  9.7km/h 6mph /  9.7km/h 87% 0in /  0mm 37.00 W/m2
19:15 81.1 °F /  27.3 °C 76.5 °F /  24.7 °C 29.79in /  1008.7hPa South 4mph /  6.4km/h 6mph /  9.7km/h 86% 0in /  0mm 32.00 W/m2
19:20 81.1 °F /  27.3 °C 76.5 °F /  24.7 °C 29.79in /  1008.7hPa South 2mph /  3.2km/h 6mph /  9.7km/h 86% 0in /  0mm 28.00 W/m2
19:25 81.1 °F /  27.3 °C 76.5 °F /  24.7 °C 29.79in /  1008.7hPa South 4mph /  6.4km/h 10mph /  16.1km/h 86% 0in /  0mm 23.00 W/m2
19:30 81 °F /  27.2 °C 76.6 °F /  24.8 °C 29.79in /  1008.7hPa South 4mph /  6.4km/h 7mph /  11.3km/h 87% 0in /  0mm 19.00 W/m2
19:35 81 °F /  27.2 °C 76.6 °F /  24.8 °C 29.79in /  1008.7hPa South 2mph /  3.2km/h 10mph /  16.1km/h 87% 0in /  0mm 16.00 W/m2
19:40 81 °F /  27.2 °C 77 °F /  25 °C 29.79in /  1008.7hPa SE 2.9mph /  4.7km/h 6mph /  9.7km/h 88% 0in /  0mm 11.00 W/m2
19:45 81 °F /  27.2 °C 77 °F /  25 °C 29.79in /  1008.7hPa SSE 9mph /  14.5km/h 9mph /  14.5km/h 88% 0in /  0mm 7.00 W/m2
19:50 81 °F /  27.2 °C 77 °F /  25 °C 29.79in /  1008.7hPa South 0.9mph /  1.4km/h 4mph /  6.4km/h 88% 0in /  0mm 0.00 W/m2
19:55 80.8 °F /  27.1 °C 76.8 °F /  24.9 °C 29.80in /  1009hPa ESE 2mph /  3.2km/h 3mph /  4.8km/h 88% 0in /  0mm 0.00 W/m2
20:00 80.8 °F /  27.1 °C 76.8 °F /  24.9 °C 29.79in /  1008.7hPa East 2.9mph /  4.7km/h 3mph /  4.8km/h 88% 0in /  0mm 0.00 W/m2
20:05 80.4 °F /  26.9 °C 76.5 °F /  24.7 °C 29.80in /  1009hPa East 0.9mph /  1.4km/h 2mph /  3.2km/h 88% 0in /  0mm 0.00 W/m2
20:10 80.4 °F /  26.9 °C 76.8 °F /  24.9 °C 29.80in /  1009hPa Calm   2mph /  3.2km/h 89% 0in /  0mm 0.00 W/m2
20:15 80.2 °F /  26.8 °C 76.6 °F /  24.8 °C 29.81in /  1009.4hPa East 0.9mph /  1.4km/h 2mph /  3.2km/h 89% 0in /  0mm 0.00 W/m2
20:20 80.2 °F /  26.8 °C 77 °F /  25 °C 29.81in /  1009.4hPa East 0.9mph /  1.4km/h 2mph /  3.2km/h 90% 0in /  0mm 0.00 W/m2
20:25 80.1 °F /  26.7 °C 76.8 °F /  24.9 °C 29.81in /  1009.4hPa East 0.9mph /  1.4km/h 2mph /  3.2km/h 90% 0in /  0mm 0.00 W/m2
20:30 80.1 °F /  26.7 °C 76.8 °F /  24.9 °C 29.81in /  1009.4hPa SE 2mph /  3.2km/h 4mph /  6.4km/h 90% 0in /  0mm 0.00 W/m2
20:35 80.2 °F /  26.8 °C 77 °F /  25 °C 29.81in /  1009.4hPa SE 2.9mph /  4.7km/h 4mph /  6.4km/h 90% 0in /  0mm 0.00 W/m2
20:40 80.1 °F /  26.7 °C 76.8 °F /  24.9 °C 29.80in /  1009hPa SSE 4mph /  6.4km/h 5mph /  8km/h 90% 0in /  0mm 0.00 W/m2
20:45 80.1 °F /  26.7 °C 76.8 °F /  24.9 °C 29.80in /  1009hPa SE 2.9mph /  4.7km/h 5mph /  8km/h 90% 0in /  0mm 0.00 W/m2
20:50 80.2 °F /  26.8 °C 77 °F /  25 °C 29.81in /  1009.4hPa SE 4.9mph /  7.9km/h 5mph /  8km/h 90% 0in /  0mm 0.00 W/m2
20:55 80.1 °F /  26.7 °C 76.5 °F /  24.7 °C 29.81in /  1009.4hPa South 2mph /  3.2km/h 7mph /  11.3km/h 89% 0in /  0mm 0.00 W/m2
21:00 80.1 °F /  26.7 °C 76.5 °F /  24.7 °C 29.82in /  1009.7hPa SSE 4.9mph /  7.9km/h 7mph /  11.3km/h 89% 0in /  0mm 0.00 W/m2
21:05 80.1 °F /  26.7 °C 76.8 °F /  24.9 °C 29.82in /  1009.7hPa SE 2.9mph /  4.7km/h 7mph /  11.3km/h 90% 0in /  0mm 0.00 W/m2
21:10 80.1 °F /  26.7 °C 76.8 °F /  24.9 °C 29.82in /  1009.7hPa SE 4.9mph /  7.9km/h 5mph /  8km/h 90% 0in /  0mm 0.00 W/m2
21:15 80.1 °F /  26.7 °C 76.8 °F /  24.9 °C 29.82in /  1009.7hPa SSE 2.9mph /  4.7km/h 5mph /  8km/h 90% 0in /  0mm 0.00 W/m2
21:20 80.1 °F /  26.7 °C 76.8 °F /  24.9 °C 29.82in /  1009.7hPa SE 4mph /  6.4km/h 5mph /  8km/h 90% 0in /  0mm 0.00 W/m2
21:25 80.1 °F /  26.7 °C 76.8 °F /  24.9 °C 29.82in /  1009.7hPa SE 2.9mph /  4.7km/h 5mph /  8km/h 90% 0in /  0mm 0.00 W/m2
21:30 79.9 °F /  26.6 °C 76.6 °F /  24.8 °C 29.82in /  1009.7hPa SE 2mph /  3.2km/h 9mph /  14.5km/h 90% 0in /  0mm 0.00 W/m2
21:35 79.9 °F /  26.6 °C 76.6 °F /  24.8 °C 29.82in /  1009.7hPa SE 2mph /  3.2km/h 4mph /  6.4km/h 90% 0in /  0mm 0.00 W/m2
21:40 79.9 °F /  26.6 °C 76.6 °F /  24.8 °C 29.83in /  1010hPa South 7mph /  11.3km/h 7mph /  11.3km/h 90% 0in /  0mm 0.00 W/m2
21:45 79.9 °F /  26.6 °C 76.6 °F /  24.8 °C 29.83in /  1010hPa SSE 0.9mph /  1.4km/h 4mph /  6.4km/h 90% 0in /  0mm 0.00 W/m2
21:50 79.9 °F /  26.6 °C 76.6 °F /  24.8 °C 29.83in /  1010hPa SE 0.9mph /  1.4km/h 3mph /  4.8km/h 90% 0in /  0mm 0.00 W/m2
21:55 79.9 °F /  26.6 °C 77 °F /  25 °C 29.83in /  1010hPa SE 2.9mph /  4.7km/h 7mph /  11.3km/h 91% 0in /  0mm 0.00 W/m2
22:00 79.9 °F /  26.6 °C 76.6 °F /  24.8 °C 29.83in /  1010hPa SE 2.9mph /  4.7km/h 4mph /  6.4km/h 90% 0in /  0mm 0.00 W/m2
22:05 79.9 °F /  26.6 °C 77 °F /  25 °C 29.83in /  1010hPa SSE 2mph /  3.2km/h 4mph /  6.4km/h 91% 0in /  0mm 0.00 W/m2
22:10 79.7 °F /  26.5 °C 76.8 °F /  24.9 °C 29.84in /  1010.4hPa SSE 2mph /  3.2km/h 5mph /  8km/h 91% 0in /  0mm 0.00 W/m2
22:15 79.5 °F /  26.4 °C 76.6 °F /  24.8 °C 29.84in /  1010.4hPa South 2mph /  3.2km/h 5mph /  8km/h 91% 0in /  0mm 0.00 W/m2
22:20 79.7 °F /  26.5 °C 76.8 °F /  24.9 °C 29.83in /  1010hPa SE 2mph /  3.2km/h 3mph /  4.8km/h 91% 0in /  0mm 0.00 W/m2
22:25 79.5 °F /  26.4 °C 76.6 °F /  24.8 °C 29.83in /  1010hPa SE 2mph /  3.2km/h 4mph /  6.4km/h 91% 0in /  0mm 0.00 W/m2
22:30 79.5 °F /  26.4 °C 76.6 °F /  24.8 °C 29.84in /  1010.4hPa SSE 2mph /  3.2km/h 5mph /  8km/h 91% 0in /  0mm 0.00 W/m2
22:35 79.7 °F /  26.5 °C 76.8 °F /  24.9 °C 29.83in /  1010hPa SSE 2.9mph /  4.7km/h 6mph /  9.7km/h 91% 0in /  0mm 0.00 W/m2
22:40 79.9 °F /  26.6 °C 77 °F /  25 °C 29.84in /  1010.4hPa South 2mph /  3.2km/h 3mph /  4.8km/h 91% 0in /  0mm 0.00 W/m2
22:45 79.9 °F /  26.6 °C 77 °F /  25 °C 29.84in /  1010.4hPa SSE 4mph /  6.4km/h 4mph /  6.4km/h 91% 0in /  0mm 0.00 W/m2
22:50 79.9 °F /  26.6 °C 77 °F /  25 °C 29.84in /  1010.4hPa SSE 4mph /  6.4km/h 6mph /  9.7km/h 91% 0in /  0mm 0.00 W/m2
22:55 79.5 °F /  26.4 °C 76.6 °F /  24.8 °C 29.84in /  1010.4hPa SSE 2.9mph /  4.7km/h 3mph /  4.8km/h 91% 0in /  0mm 0.00 W/m2
23:00 79.5 °F /  26.4 °C 77 °F /  25 °C 29.84in /  1010.4hPa SSE 4mph /  6.4km/h 4mph /  6.4km/h 92% 0in /  0mm 0.00 W/m2
23:05 79.5 °F /  26.4 °C 77 °F /  25 °C 29.84in /  1010.4hPa SSE 2mph /  3.2km/h 3mph /  4.8km/h 92% 0in /  0mm 0.00 W/m2
23:10 79.5 °F /  26.4 °C 77 °F /  25 °C 29.84in /  1010.4hPa SE 2mph /  3.2km/h 2mph /  3.2km/h 92% 0in /  0mm 0.00 W/m2
23:15 79.5 °F /  26.4 °C 77 °F /  25 °C 29.84in /  1010.4hPa Calm   2mph /  3.2km/h 92% 0in /  0mm 0.00 W/m2
23:20 79.3 °F /  26.3 °C 76.8 °F /  24.9 °C 29.84in /  1010.4hPa SE 0.9mph /  1.4km/h 3mph /  4.8km/h 92% 0in /  0mm 0.00 W/m2
23:25 79.3 °F /  26.3 °C 76.8 °F /  24.9 °C 29.84in /  1010.4hPa SE 0.9mph /  1.4km/h 1mph /  1.6km/h 92% 0in /  0mm 0.00 W/m2
23:30 79.3 °F /  26.3 °C 76.8 °F /  24.9 °C 29.84in /  1010.4hPa SE 2mph /  3.2km/h 3mph /  4.8km/h 92% 0in /  0mm 0.00 W/m2
23:35 79.3 °F /  26.3 °C 77.2 °F /  25.1 °C 29.84in /  1010.4hPa SE 2.9mph /  4.7km/h 3mph /  4.8km/h 93% 0in /  0mm 0.00 W/m2
23:40 79.3 °F /  26.3 °C 77.2 °F /  25.1 °C 29.84in /  1010.4hPa SE 0.9mph /  1.4km/h 2mph /  3.2km/h 93% 0in /  0mm 0.00 W/m2
23:45 79.3 °F /  26.3 °C 77.2 °F /  25.1 °C 29.84in /  1010.4hPa SE 0.9mph /  1.4km/h 3mph /  4.8km/h 93% 0in /  0mm 0.00 W/m2
23:50 79.2 °F /  26.2 °C 77 °F /  25 °C 29.84in /  1010.4hPa SE 2mph /  3.2km/h 2mph /  3.2km/h 93% 0in /  0mm 0.00 W/m2
23:55 79.2 °F /  26.2 °C 77 °F /  25 °C 29.84in /  1010.4hPa SE 2.9mph /  4.7km/h 3mph /  4.8km/h 93% 0in /  0mm 0.00 W/m2
Villages of Bridgestone, Spring, TX USA
Compliments of Weather Underground - 2.75 mb